sensor_id;sensor_type;location;lat;lon;timestamp;temperature;humidity
12655;DHT22;6392;44.644;11.448;2023-04-10T00:02:14;13.70;99.90
12655;DHT22;6392;44.644;11.448;2023-04-10T00:04:42;13.70;99.90
12655;DHT22;6392;44.644;11.448;2023-04-10T00:07:09;13.70;99.90
12655;DHT22;6392;44.644;11.448;2023-04-10T00:09:36;13.70;99.90
12655;DHT22;6392;44.644;11.448;2023-04-10T00:12:02;13.70;99.90
12655;DHT22;6392;44.644;11.448;2023-04-10T00:14:29;13.70;99.90
12655;DHT22;6392;44.644;11.448;2023-04-10T00:16:56;13.70;99.90
12655;DHT22;6392;44.644;11.448;2023-04-10T00:19:23;13.70;99.90
12655;DHT22;6392;44.644;11.448;2023-04-10T00:21:51;13.70;99.90
12655;DHT22;6392;44.644;11.448;2023-04-10T00:24:18;13.70;99.90
12655;DHT22;6392;44.644;11.448;2023-04-10T00:26:45;13.70;99.90
12655;DHT22;6392;44.644;11.448;2023-04-10T00:29:12;13.60;99.90
12655;DHT22;6392;44.644;11.448;2023-04-10T00:31:39;13.60;99.90
12655;DHT22;6392;44.644;11.448;2023-04-10T00:34:06;13.60;99.90
12655;DHT22;6392;44.644;11.448;2023-04-10T00:36:33;13.60;99.90
12655;DHT22;6392;44.644;11.448;2023-04-10T00:39:01;13.60;99.90
12655;DHT22;6392;44.644;11.448;2023-04-10T00:41:28;13.50;99.90
12655;DHT22;6392;44.644;11.448;2023-04-10T00:43:55;13.50;99.90
12655;DHT22;6392;44.644;11.448;2023-04-10T00:46:22;13.50;99.90
12655;DHT22;6392;44.644;11.448;2023-04-10T00:48:49;13.50;99.90
12655;DHT22;6392;44.644;11.448;2023-04-10T00:51:16;13.50;99.90
12655;DHT22;6392;44.644;11.448;2023-04-10T00:53:45;13.40;99.90
12655;DHT22;6392;44.644;11.448;2023-04-10T00:56:13;13.40;99.90
12655;DHT22;6392;44.644;11.448;2023-04-10T00:58:40;13.40;99.90
12655;DHT22;6392;44.644;11.448;2023-04-10T01:01:07;13.40;99.90
12655;DHT22;6392;44.644;11.448;2023-04-10T01:03:34;13.30;99.90
12655;DHT22;6392;44.644;11.448;2023-04-10T01:06:02;13.30;99.90
12655;DHT22;6392;44.644;11.448;2023-04-10T01:08:33;13.30;99.90
12655;DHT22;6392;44.644;11.448;2023-04-10T01:11:04;13.30;99.90
12655;DHT22;6392;44.644;11.448;2023-04-10T01:13:33;13.30;99.90
12655;DHT22;6392;44.644;11.448;2023-04-10T01:16:01;13.20;99.90
12655;DHT22;6392;44.644;11.448;2023-04-10T01:18:32;13.20;99.90
12655;DHT22;6392;44.644;11.448;2023-04-10T01:21:01;13.10;99.90
12655;DHT22;6392;44.644;11.448;2023-04-10T01:23:41;13.00;99.90
12655;DHT22;6392;44.644;11.448;2023-04-10T01:26:12;13.00;99.90
12655;DHT22;6392;44.644;11.448;2023-04-10T01:28:52;13.00;99.90
12655;DHT22;6392;44.644;11.448;2023-04-10T01:31:26;13.00;99.90
12655;DHT22;6392;44.644;11.448;2023-04-10T01:33:55;13.00;99.90
12655;DHT22;6392;44.644;11.448;2023-04-10T01:36:24;13.00;99.90
12655;DHT22;6392;44.644;11.448;2023-04-10T01:38:52;13.00;99.90
12655;DHT22;6392;44.644;11.448;2023-04-10T01:41:20;12.90;99.90
12655;DHT22;6392;44.644;11.448;2023-04-10T01:43:48;12.90;99.90
12655;DHT22;6392;44.644;11.448;2023-04-10T01:46:18;12.80;99.90
12655;DHT22;6392;44.644;11.448;2023-04-10T01:48:45;12.80;99.90
12655;DHT22;6392;44.644;11.448;2023-04-10T01:51:12;12.80;99.90
12655;DHT22;6392;44.644;11.448;2023-04-10T01:53:40;12.80;99.90
12655;DHT22;6392;44.644;11.448;2023-04-10T01:56:08;12.70;99.90
12655;DHT22;6392;44.644;11.448;2023-04-10T01:58:35;12.70;99.90
12655;DHT22;6392;44.644;11.448;2023-04-10T02:01:02;12.60;99.90
12655;DHT22;6392;44.644;11.448;2023-04-10T02:03:31;12.60;99.90
12655;DHT22;6392;44.644;11.448;2023-04-10T02:06:00;12.60;99.90
12655;DHT22;6392;44.644;11.448;2023-04-10T02:08:30;12.60;99.90
12655;DHT22;6392;44.644;11.448;2023-04-10T02:11:01;12.50;99.90
12655;DHT22;6392;44.644;11.448;2023-04-10T02:13:29;12.50;99.90
12655;DHT22;6392;44.644;11.448;2023-04-10T02:15:59;12.40;99.90
12655;DHT22;6392;44.644;11.448;2023-04-10T02:18:28;12.30;99.90
12655;DHT22;6392;44.644;11.448;2023-04-10T02:20:57;12.20;99.90
12655;DHT22;6392;44.644;11.448;2023-04-10T02:23:25;12.10;99.90
12655;DHT22;6392;44.644;11.448;2023-04-10T02:25:52;12.00;99.90
12655;DHT22;6392;44.644;11.448;2023-04-10T02:28:20;11.80;99.90
12655;DHT22;6392;44.644;11.448;2023-04-10T02:30:47;11.80;99.90
12655;DHT22;6392;44.644;11.448;2023-04-10T02:33:14;11.70;99.90
12655;DHT22;6392;44.644;11.448;2023-04-10T02:35:41;11.60;99.90
12655;DHT22;6392;44.644;11.448;2023-04-10T02:38:09;11.50;99.90
12655;DHT22;6392;44.644;11.448;2023-04-10T02:40:36;11.40;99.90
12655;DHT22;6392;44.644;11.448;2023-04-10T02:43:02;11.30;99.90
12655;DHT22;6392;44.644;11.448;2023-04-10T02:45:29;11.30;99.90
12655;DHT22;6392;44.644;11.448;2023-04-10T02:47:57;11.30;99.90
12655;DHT22;6392;44.644;11.448;2023-04-10T02:50:24;11.40;99.90
12655;DHT22;6392;44.644;11.448;2023-04-10T02:52:55;11.40;99.90
12655;DHT22;6392;44.644;11.448;2023-04-10T02:55:23;11.40;99.90
12655;DHT22;6392;44.644;11.448;2023-04-10T02:57:50;11.40;99.90
12655;DHT22;6392;44.644;11.448;2023-04-10T03:00:17;11.50;99.90
12655;DHT22;6392;44.644;11.448;2023-04-10T03:02:44;11.40;99.90
12655;DHT22;6392;44.644;11.448;2023-04-10T03:05:11;11.50;99.90
12655;DHT22;6392;44.644;11.448;2023-04-10T03:07:38;11.60;99.90
12655;DHT22;6392;44.644;11.448;2023-04-10T03:10:05;11.60;99.90
12655;DHT22;6392;44.644;11.448;2023-04-10T03:12:33;11.70;99.90
12655;DHT22;6392;44.644;11.448;2023-04-10T03:15:00;11.70;99.90
12655;DHT22;6392;44.644;11.448;2023-04-10T03:17:27;11.70;99.90
12655;DHT22;6392;44.644;11.448;2023-04-10T03:19:53;11.70;99.90
12655;DHT22;6392;44.644;11.448;2023-04-10T03:22:20;11.70;99.90
12655;DHT22;6392;44.644;11.448;2023-04-10T03:24:47;11.70;99.90
12655;DHT22;6392;44.644;11.448;2023-04-10T03:27:14;11.60;99.90
12655;DHT22;6392;44.644;11.448;2023-04-10T03:29:42;11.70;99.90
12655;DHT22;6392;44.644;11.448;2023-04-10T03:32:09;11.60;99.90
12655;DHT22;6392;44.644;11.448;2023-04-10T03:34:36;11.60;99.90
12655;DHT22;6392;44.644;11.448;2023-04-10T03:37:03;11.60;99.90
12655;DHT22;6392;44.644;11.448;2023-04-10T03:39:30;11.60;99.90
12655;DHT22;6392;44.644;11.448;2023-04-10T03:41:57;11.60;99.90
12655;DHT22;6392;44.644;11.448;2023-04-10T03:44:25;11.50;99.90
12655;DHT22;6392;44.644;11.448;2023-04-10T03:46:53;11.60;99.90
12655;DHT22;6392;44.644;11.448;2023-04-10T03:49:19;11.50;99.90
12655;DHT22;6392;44.644;11.448;2023-04-10T03:51:46;11.30;99.90
12655;DHT22;6392;44.644;11.448;2023-04-10T03:54:13;11.30;99.90
12655;DHT22;6392;44.644;11.448;2023-04-10T03:56:40;11.20;99.90
12655;DHT22;6392;44.644;11.448;2023-04-10T03:59:07;11.20;99.90
12655;DHT22;6392;44.644;11.448;2023-04-10T04:01:33;11.10;99.90
12655;DHT22;6392;44.644;11.448;2023-04-10T04:04:02;11.10;99.90
12655;DHT22;6392;44.644;11.448;2023-04-10T04:06:29;11.10;99.90
12655;DHT22;6392;44.644;11.448;2023-04-10T04:08:56;11.10;99.90
12655;DHT22;6392;44.644;11.448;2023-04-10T04:11:23;11.10;99.90
12655;DHT22;6392;44.644;11.448;2023-04-10T04:13:50;11.10;99.90
12655;DHT22;6392;44.644;11.448;2023-04-10T04:16:16;11.10;99.90
12655;DHT22;6392;44.644;11.448;2023-04-10T04:18:43;11.10;99.90
12655;DHT22;6392;44.644;11.448;2023-04-10T04:21:11;11.10;99.90
12655;DHT22;6392;44.644;11.448;2023-04-10T04:23:38;11.00;99.90
12655;DHT22;6392;44.644;11.448;2023-04-10T04:26:05;11.00;99.90
12655;DHT22;6392;44.644;11.448;2023-04-10T04:28:32;10.90;99.90
12655;DHT22;6392;44.644;11.448;2023-04-10T04:30:59;10.80;99.90
12655;DHT22;6392;44.644;11.448;2023-04-10T04:33:26;10.60;99.90
12655;DHT22;6392;44.644;11.448;2023-04-10T04:35:53;10.50;99.90
12655;DHT22;6392;44.644;11.448;2023-04-10T04:38:21;10.40;99.90
12655;DHT22;6392;44.644;11.448;2023-04-10T04:40:48;10.30;99.90
12655;DHT22;6392;44.644;11.448;2023-04-10T04:43:15;10.30;99.90
12655;DHT22;6392;44.644;11.448;2023-04-10T04:45:42;10.20;99.90
12655;DHT22;6392;44.644;11.448;2023-04-10T04:48:08;10.10;99.90
12655;DHT22;6392;44.644;11.448;2023-04-10T04:50:35;10.00;99.90
12655;DHT22;6392;44.644;11.448;2023-04-10T04:53:02;10.00;99.90
12655;DHT22;6392;44.644;11.448;2023-04-10T04:55:30;10.00;99.90
12655;DHT22;6392;44.644;11.448;2023-04-10T04:57:57;10.00;99.90
12655;DHT22;6392;44.644;11.448;2023-04-10T05:00:24;9.90;99.90
12655;DHT22;6392;44.644;11.448;2023-04-10T05:02:50;9.90;99.90
12655;DHT22;6392;44.644;11.448;2023-04-10T05:05:17;9.90;99.90
12655;DHT22;6392;44.644;11.448;2023-04-10T05:07:44;9.90;99.90
12655;DHT22;6392;44.644;11.448;2023-04-10T05:10:11;9.90;99.90
12655;DHT22;6392;44.644;11.448;2023-04-10T05:12:39;9.90;99.90
12655;DHT22;6392;44.644;11.448;2023-04-10T05:15:07;9.90;99.90
12655;DHT22;6392;44.644;11.448;2023-04-10T05:17:34;9.90;99.90
12655;DHT22;6392;44.644;11.448;2023-04-10T05:20:01;9.90;99.90
12655;DHT22;6392;44.644;11.448;2023-04-10T05:22:29;9.90;99.90
12655;DHT22;6392;44.644;11.448;2023-04-10T05:24:55;9.90;99.90
12655;DHT22;6392;44.644;11.448;2023-04-10T05:27:22;9.80;99.90
12655;DHT22;6392;44.644;11.448;2023-04-10T05:29:51;9.80;99.90
12655;DHT22;6392;44.644;11.448;2023-04-10T05:32:17;9.70;99.90
12655;DHT22;6392;44.644;11.448;2023-04-10T05:34:44;9.70;99.90
12655;DHT22;6392;44.644;11.448;2023-04-10T05:37:11;9.60;99.90
12655;DHT22;6392;44.644;11.448;2023-04-10T05:39:38;9.60;99.90
12655;DHT22;6392;44.644;11.448;2023-04-10T05:42:05;9.60;99.90
12655;DHT22;6392;44.644;11.448;2023-04-10T05:44:31;9.60;99.90
12655;DHT22;6392;44.644;11.448;2023-04-10T05:46:59;9.50;99.90
12655;DHT22;6392;44.644;11.448;2023-04-10T05:49:26;9.50;99.90
12655;DHT22;6392;44.644;11.448;2023-04-10T05:51:53;9.50;99.90
12655;DHT22;6392;44.644;11.448;2023-04-10T05:54:20;9.50;99.90
12655;DHT22;6392;44.644;11.448;2023-04-10T05:56:46;9.50;99.90
12655;DHT22;6392;44.644;11.448;2023-04-10T05:59:13;9.50;99.90
12655;DHT22;6392;44.644;11.448;2023-04-10T06:01:40;9.60;99.90
12655;DHT22;6392;44.644;11.448;2023-04-10T06:04:08;9.70;99.90
12655;DHT22;6392;44.644;11.448;2023-04-10T06:06:35;9.70;99.90
12655;DHT22;6392;44.644;11.448;2023-04-10T06:09:02;9.70;99.90
12655;DHT22;6392;44.644;11.448;2023-04-10T06:11:29;9.80;99.90
12655;DHT22;6392;44.644;11.448;2023-04-10T06:13:56;9.80;99.90
12655;DHT22;6392;44.644;11.448;2023-04-10T06:16:22;9.80;99.90
12655;DHT22;6392;44.644;11.448;2023-04-10T06:18:50;9.80;99.90
12655;DHT22;6392;44.644;11.448;2023-04-10T06:21:19;9.80;99.90
12655;DHT22;6392;44.644;11.448;2023-04-10T06:23:46;9.90;99.90
12655;DHT22;6392;44.644;11.448;2023-04-10T06:26:13;9.90;99.90
12655;DHT22;6392;44.644;11.448;2023-04-10T06:28:40;9.90;99.90
12655;DHT22;6392;44.644;11.448;2023-04-10T06:31:07;10.00;99.90
12655;DHT22;6392;44.644;11.448;2023-04-10T06:33:33;10.00;99.90
12655;DHT22;6392;44.644;11.448;2023-04-10T06:36:01;10.10;99.90
12655;DHT22;6392;44.644;11.448;2023-04-10T06:38:29;10.20;99.90
12655;DHT22;6392;44.644;11.448;2023-04-10T06:40:58;10.20;99.90
12655;DHT22;6392;44.644;11.448;2023-04-10T06:43:25;10.30;99.90
12655;DHT22;6392;44.644;11.448;2023-04-10T06:45:52;10.40;99.90
12655;DHT22;6392;44.644;11.448;2023-04-10T06:48:19;10.40;99.90
12655;DHT22;6392;44.644;11.448;2023-04-10T06:50:45;10.50;99.90
12655;DHT22;6392;44.644;11.448;2023-04-10T06:53:12;10.50;99.90
12655;DHT22;6392;44.644;11.448;2023-04-10T06:55:40;10.60;99.90
12655;DHT22;6392;44.644;11.448;2023-04-10T06:58:07;10.60;99.90
12655;DHT22;6392;44.644;11.448;2023-04-10T07:00:34;10.70;99.90
12655;DHT22;6392;44.644;11.448;2023-04-10T07:03:01;10.80;99.90
12655;DHT22;6392;44.644;11.448;2023-04-10T07:05:27;10.90;99.90
12655;DHT22;6392;44.644;11.448;2023-04-10T07:07:54;11.00;99.90
12655;DHT22;6392;44.644;11.448;2023-04-10T07:10:21;11.10;99.90
12655;DHT22;6392;44.644;11.448;2023-04-10T07:12:50;11.20;99.90
12655;DHT22;6392;44.644;11.448;2023-04-10T07:15:16;11.30;99.90
12655;DHT22;6392;44.644;11.448;2023-04-10T07:17:43;11.40;99.90
12655;DHT22;6392;44.644;11.448;2023-04-10T07:20:10;11.50;99.90
12655;DHT22;6392;44.644;11.448;2023-04-10T07:22:37;11.60;99.90
12655;DHT22;6392;44.644;11.448;2023-04-10T07:25:04;11.70;99.90
12655;DHT22;6392;44.644;11.448;2023-04-10T07:27:31;11.70;99.90
12655;DHT22;6392;44.644;11.448;2023-04-10T07:29:59;11.70;99.90
12655;DHT22;6392;44.644;11.448;2023-04-10T07:32:26;11.80;99.90
12655;DHT22;6392;44.644;11.448;2023-04-10T07:34:53;11.80;99.90
12655;DHT22;6392;44.644;11.448;2023-04-10T07:37:19;11.90;99.90
12655;DHT22;6392;44.644;11.448;2023-04-10T07:39:46;11.90;99.90
12655;DHT22;6392;44.644;11.448;2023-04-10T07:42:13;12.00;99.90
12655;DHT22;6392;44.644;11.448;2023-04-10T07:44:40;12.00;99.90
12655;DHT22;6392;44.644;11.448;2023-04-10T07:47:08;12.10;99.90
12655;DHT22;6392;44.644;11.448;2023-04-10T07:49:35;12.10;99.90
12655;DHT22;6392;44.644;11.448;2023-04-10T07:52:02;12.20;99.90
12655;DHT22;6392;44.644;11.448;2023-04-10T07:54:30;12.30;99.90
12655;DHT22;6392;44.644;11.448;2023-04-10T07:56:57;12.30;99.90
12655;DHT22;6392;44.644;11.448;2023-04-10T07:59:24;12.30;99.90
12655;DHT22;6392;44.644;11.448;2023-04-10T08:01:51;12.40;99.90
12655;DHT22;6392;44.644;11.448;2023-04-10T08:04:19;12.40;99.90
12655;DHT22;6392;44.644;11.448;2023-04-10T08:06:46;12.50;99.90
12655;DHT22;6392;44.644;11.448;2023-04-10T08:09:13;12.60;99.90
12655;DHT22;6392;44.644;11.448;2023-04-10T08:11:40;12.70;99.90
12655;DHT22;6392;44.644;11.448;2023-04-10T08:14:07;12.70;99.90
12655;DHT22;6392;44.644;11.448;2023-04-10T08:16:34;12.70;99.90
12655;DHT22;6392;44.644;11.448;2023-04-10T08:19:02;12.80;99.90
12655;DHT22;6392;44.644;11.448;2023-04-10T08:21:30;12.80;99.90
12655;DHT22;6392;44.644;11.448;2023-04-10T08:23:58;12.90;99.90
12655;DHT22;6392;44.644;11.448;2023-04-10T08:26:25;13.00;99.90
12655;DHT22;6392;44.644;11.448;2023-04-10T08:28:52;13.00;99.90
12655;DHT22;6392;44.644;11.448;2023-04-10T08:31:20;13.10;99.90
12655;DHT22;6392;44.644;11.448;2023-04-10T08:33:47;13.10;99.90
12655;DHT22;6392;44.644;11.448;2023-04-10T08:36:14;13.10;99.90
12655;DHT22;6392;44.644;11.448;2023-04-10T08:38:42;13.20;99.90
12655;DHT22;6392;44.644;11.448;2023-04-10T08:41:10;13.40;99.90
12655;DHT22;6392;44.644;11.448;2023-04-10T08:43:37;13.50;99.90
12655;DHT22;6392;44.644;11.448;2023-04-10T08:46:04;13.70;99.90
12655;DHT22;6392;44.644;11.448;2023-04-10T08:48:38;13.90;99.90
12655;DHT22;6392;44.644;11.448;2023-04-10T08:51:06;14.00;99.90
12655;DHT22;6392;44.644;11.448;2023-04-10T08:53:34;14.00;99.90
12655;DHT22;6392;44.644;11.448;2023-04-10T08:56:05;14.00;99.90
12655;DHT22;6392;44.644;11.448;2023-04-10T08:58:32;14.10;99.90
12655;DHT22;6392;44.644;11.448;2023-04-10T09:01:00;14.10;99.90
12655;DHT22;6392;44.644;11.448;2023-04-10T09:03:27;14.20;99.90
12655;DHT22;6392;44.644;11.448;2023-04-10T09:05:54;14.30;99.90
12655;DHT22;6392;44.644;11.448;2023-04-10T09:08:22;14.30;99.90
12655;DHT22;6392;44.644;11.448;2023-04-10T09:10:49;14.40;99.90
12655;DHT22;6392;44.644;11.448;2023-04-10T09:13:17;14.40;99.90
12655;DHT22;6392;44.644;11.448;2023-04-10T09:16:00;14.50;99.90
12655;DHT22;6392;44.644;11.448;2023-04-10T09:18:39;14.50;99.90
12655;DHT22;6392;44.644;11.448;2023-04-10T09:21:07;14.50;99.90
12655;DHT22;6392;44.644;11.448;2023-04-10T09:23:34;14.50;99.90
12655;DHT22;6392;44.644;11.448;2023-04-10T09:26:00;14.50;99.90
12655;DHT22;6392;44.644;11.448;2023-04-10T09:28:29;14.60;99.90
12655;DHT22;6392;44.644;11.448;2023-04-10T09:30:55;14.60;99.90
12655;DHT22;6392;44.644;11.448;2023-04-10T09:33:23;14.50;99.90
12655;DHT22;6392;44.644;11.448;2023-04-10T09:35:51;14.50;99.90
12655;DHT22;6392;44.644;11.448;2023-04-10T09:38:19;14.60;99.90
12655;DHT22;6392;44.644;11.448;2023-04-10T09:40:46;14.80;99.90
12655;DHT22;6392;44.644;11.448;2023-04-10T09:43:20;15.00;99.90
12655;DHT22;6392;44.644;11.448;2023-04-10T09:45:51;14.90;99.90
12655;DHT22;6392;44.644;11.448;2023-04-10T09:48:19;14.80;99.90
12655;DHT22;6392;44.644;11.448;2023-04-10T09:50:46;14.80;99.90
12655;DHT22;6392;44.644;11.448;2023-04-10T09:53:13;14.80;99.90
12655;DHT22;6392;44.644;11.448;2023-04-10T09:55:41;14.70;99.90
12655;DHT22;6392;44.644;11.448;2023-04-10T09:58:08;14.70;99.90
12655;DHT22;6392;44.644;11.448;2023-04-10T10:00:37;14.70;99.90
12655;DHT22;6392;44.644;11.448;2023-04-10T10:03:06;14.70;99.90
12655;DHT22;6392;44.644;11.448;2023-04-10T10:05:34;14.70;99.90
12655;DHT22;6392;44.644;11.448;2023-04-10T10:08:01;14.70;99.90
12655;DHT22;6392;44.644;11.448;2023-04-10T10:10:29;14.70;99.90
12655;DHT22;6392;44.644;11.448;2023-04-10T10:12:58;14.80;99.90
12655;DHT22;6392;44.644;11.448;2023-04-10T10:15:26;14.80;99.90
12655;DHT22;6392;44.644;11.448;2023-04-10T10:17:58;14.90;99.90
12655;DHT22;6392;44.644;11.448;2023-04-10T10:20:28;14.90;99.90
12655;DHT22;6392;44.644;11.448;2023-04-10T10:22:56;14.90;99.90
12655;DHT22;6392;44.644;11.448;2023-04-10T10:25:23;15.00;99.90
12655;DHT22;6392;44.644;11.448;2023-04-10T10:27:50;14.90;99.90
12655;DHT22;6392;44.644;11.448;2023-04-10T10:30:19;15.00;99.90
12655;DHT22;6392;44.644;11.448;2023-04-10T10:32:46;15.00;99.90
12655;DHT22;6392;44.644;11.448;2023-04-10T10:35:13;15.10;99.90
12655;DHT22;6392;44.644;11.448;2023-04-10T10:37:41;15.10;99.90
12655;DHT22;6392;44.644;11.448;2023-04-10T10:40:11;15.10;99.90
12655;DHT22;6392;44.644;11.448;2023-04-10T10:42:41;15.10;99.90
12655;DHT22;6392;44.644;11.448;2023-04-10T10:45:11;15.20;99.90
12655;DHT22;6392;44.644;11.448;2023-04-10T10:47:39;15.20;99.90
12655;DHT22;6392;44.644;11.448;2023-04-10T10:50:06;15.20;99.90
12655;DHT22;6392;44.644;11.448;2023-04-10T10:52:37;15.20;99.90
12655;DHT22;6392;44.644;11.448;2023-04-10T10:57:51;15.20;99.90
12655;DHT22;6392;44.644;11.448;2023-04-10T11:00:20;15.30;99.90
12655;DHT22;6392;44.644;11.448;2023-04-10T11:02:55;15.30;99.90
12655;DHT22;6392;44.644;11.448;2023-04-10T11:05:48;15.40;99.90
12655;DHT22;6392;44.644;11.448;2023-04-10T11:08:16;15.40;99.90
12655;DHT22;6392;44.644;11.448;2023-04-10T11:10:58;15.50;99.90
12655;DHT22;6392;44.644;11.448;2023-04-10T11:13:27;15.50;99.90
12655;DHT22;6392;44.644;11.448;2023-04-10T11:15:54;15.50;99.90
12655;DHT22;6392;44.644;11.448;2023-04-10T11:21:10;15.60;99.90
12655;DHT22;6392;44.644;11.448;2023-04-10T11:23:37;15.60;99.90
12655;DHT22;6392;44.644;11.448;2023-04-10T11:26:04;15.70;99.90
12655;DHT22;6392;44.644;11.448;2023-04-10T11:28:36;15.70;99.90
12655;DHT22;6392;44.644;11.448;2023-04-10T11:31:14;15.70;99.90
12655;DHT22;6392;44.644;11.448;2023-04-10T11:33:44;15.80;99.90
12655;DHT22;6392;44.644;11.448;2023-04-10T11:36:12;15.80;99.90
12655;DHT22;6392;44.644;11.448;2023-04-10T11:38:39;15.80;99.90
12655;DHT22;6392;44.644;11.448;2023-04-10T11:41:06;15.90;99.90
12655;DHT22;6392;44.644;11.448;2023-04-10T11:43:32;15.90;99.90
12655;DHT22;6392;44.644;11.448;2023-04-10T11:46:02;15.90;99.90
12655;DHT22;6392;44.644;11.448;2023-04-10T11:48:29;16.00;99.90
12655;DHT22;6392;44.644;11.448;2023-04-10T11:50:56;16.00;99.90
12655;DHT22;6392;44.644;11.448;2023-04-10T11:53:26;16.00;99.90
12655;DHT22;6392;44.644;11.448;2023-04-10T11:55:54;16.10;99.90
12655;DHT22;6392;44.644;11.448;2023-04-10T11:58:25;16.20;99.90
12655;DHT22;6392;44.644;11.448;2023-04-10T12:00:56;16.10;99.90
12655;DHT22;6392;44.644;11.448;2023-04-10T12:03:34;16.10;99.90
12655;DHT22;6392;44.644;11.448;2023-04-10T12:06:01;16.10;99.90
12655;DHT22;6392;44.644;11.448;2023-04-10T12:08:31;16.10;99.90
12655;DHT22;6392;44.644;11.448;2023-04-10T12:10:58;16.10;99.90
12655;DHT22;6392;44.644;11.448;2023-04-10T12:13:25;16.20;99.90
12655;DHT22;6392;44.644;11.448;2023-04-10T12:15:52;16.30;99.90
12655;DHT22;6392;44.644;11.448;2023-04-10T12:20:56;16.40;99.90
12655;DHT22;6392;44.644;11.448;2023-04-10T12:23:23;16.50;99.90
12655;DHT22;6392;44.644;11.448;2023-04-10T12:25:51;16.60;99.90
12655;DHT22;6392;44.644;11.448;2023-04-10T12:28:18;16.70;99.90
12655;DHT22;6392;44.644;11.448;2023-04-10T12:30:45;16.90;99.90
12655;DHT22;6392;44.644;11.448;2023-04-10T12:33:12;17.10;99.90
12655;DHT22;6392;44.644;11.448;2023-04-10T12:35:39;17.10;99.90
12655;DHT22;6392;44.644;11.448;2023-04-10T12:38:08;17.20;99.90
12655;DHT22;6392;44.644;11.448;2023-04-10T12:40:35;17.20;99.90
12655;DHT22;6392;44.644;11.448;2023-04-10T12:43:02;17.40;99.90
12655;DHT22;6392;44.644;11.448;2023-04-10T12:45:42;17.40;99.90
12655;DHT22;6392;44.644;11.448;2023-04-10T12:48:08;17.50;99.90
12655;DHT22;6392;44.644;11.448;2023-04-10T12:50:44;17.50;99.90
12655;DHT22;6392;44.644;11.448;2023-04-10T12:53:13;17.40;99.90
12655;DHT22;6392;44.644;11.448;2023-04-10T12:55:40;17.20;99.90
12655;DHT22;6392;44.644;11.448;2023-04-10T12:58:17;17.20;99.90
12655;DHT22;6392;44.644;11.448;2023-04-10T13:00:44;17.20;99.90
12655;DHT22;6392;44.644;11.448;2023-04-10T13:03:11;17.30;99.90
12655;DHT22;6392;44.644;11.448;2023-04-10T13:05:37;17.40;99.90
12655;DHT22;6392;44.644;11.448;2023-04-10T13:08:04;17.50;99.90
12655;DHT22;6392;44.644;11.448;2023-04-10T13:10:32;17.50;99.90
12655;DHT22;6392;44.644;11.448;2023-04-10T13:13:01;17.60;99.90
12655;DHT22;6392;44.644;11.448;2023-04-10T13:15:28;17.70;99.90
12655;DHT22;6392;44.644;11.448;2023-04-10T13:17:55;17.80;99.90
12655;DHT22;6392;44.644;11.448;2023-04-10T13:20:22;17.90;99.90
12655;DHT22;6392;44.644;11.448;2023-04-10T13:22:48;18.00;99.90
12655;DHT22;6392;44.644;11.448;2023-04-10T13:25:16;18.10;99.90
12655;DHT22;6392;44.644;11.448;2023-04-10T13:27:44;18.50;99.90
12655;DHT22;6392;44.644;11.448;2023-04-10T13:30:11;18.80;99.90
12655;DHT22;6392;44.644;11.448;2023-04-10T13:32:38;18.80;99.90
12655;DHT22;6392;44.644;11.448;2023-04-10T13:35:04;18.70;99.90
12655;DHT22;6392;44.644;11.448;2023-04-10T13:37:31;18.70;99.90
12655;DHT22;6392;44.644;11.448;2023-04-10T13:39:58;18.60;99.90
12655;DHT22;6392;44.644;11.448;2023-04-10T13:42:25;18.50;99.90
12655;DHT22;6392;44.644;11.448;2023-04-10T13:44:53;18.50;99.90
12655;DHT22;6392;44.644;11.448;2023-04-10T13:47:20;18.60;99.90
12655;DHT22;6392;44.644;11.448;2023-04-10T13:49:46;18.70;99.90
12655;DHT22;6392;44.644;11.448;2023-04-10T13:52:13;18.70;99.90
12655;DHT22;6392;44.644;11.448;2023-04-10T13:54:40;18.80;99.90
12655;DHT22;6392;44.644;11.448;2023-04-10T13:57:08;18.70;99.90
12655;DHT22;6392;44.644;11.448;2023-04-10T13:59:35;18.70;99.90
12655;DHT22;6392;44.644;11.448;2023-04-10T14:02:03;19.10;99.90
12655;DHT22;6392;44.644;11.448;2023-04-10T14:04:30;19.40;99.90
12655;DHT22;6392;44.644;11.448;2023-04-10T14:06:56;19.60;99.90
12655;DHT22;6392;44.644;11.448;2023-04-10T14:09:24;19.70;99.90
12655;DHT22;6392;44.644;11.448;2023-04-10T14:11:51;19.80;99.90
12655;DHT22;6392;44.644;11.448;2023-04-10T14:14:19;20.10;99.90
12655;DHT22;6392;44.644;11.448;2023-04-10T14:16:48;20.10;99.90
12655;DHT22;6392;44.644;11.448;2023-04-10T14:19:16;20.10;99.90
12655;DHT22;6392;44.644;11.448;2023-04-10T14:21:43;20.00;99.90
12655;DHT22;6392;44.644;11.448;2023-04-10T14:24:09;19.90;99.90
12655;DHT22;6392;44.644;11.448;2023-04-10T14:26:36;19.80;99.90
12655;DHT22;6392;44.644;11.448;2023-04-10T14:29:03;19.80;99.90
12655;DHT22;6392;44.644;11.448;2023-04-10T14:31:32;19.90;99.90
12655;DHT22;6392;44.644;11.448;2023-04-10T14:33:59;20.10;99.90
12655;DHT22;6392;44.644;11.448;2023-04-10T14:36:27;20.20;99.90
12655;DHT22;6392;44.644;11.448;2023-04-10T14:38:54;20.30;99.90
12655;DHT22;6392;44.644;11.448;2023-04-10T14:41:21;20.20;99.90
12655;DHT22;6392;44.644;11.448;2023-04-10T14:43:47;20.30;99.90
12655;DHT22;6392;44.644;11.448;2023-04-10T14:46:15;20.20;99.90
12655;DHT22;6392;44.644;11.448;2023-04-10T14:48:41;20.30;99.90
12655;DHT22;6392;44.644;11.448;2023-04-10T14:51:08;20.50;99.90
12655;DHT22;6392;44.644;11.448;2023-04-10T14:53:38;20.70;99.90
12655;DHT22;6392;44.644;11.448;2023-04-10T14:56:09;21.10;99.90
12655;DHT22;6392;44.644;11.448;2023-04-10T14:58:36;21.80;99.90
12655;DHT22;6392;44.644;11.448;2023-04-10T15:01:02;22.50;99.90
12655;DHT22;6392;44.644;11.448;2023-04-10T15:03:29;23.10;99.90
12655;DHT22;6392;44.644;11.448;2023-04-10T15:05:59;23.50;98.80
12655;DHT22;6392;44.644;11.448;2023-04-10T15:08:26;23.80;98.00
12655;DHT22;6392;44.644;11.448;2023-04-10T15:10:54;24.10;97.10
12655;DHT22;6392;44.644;11.448;2023-04-10T15:13:21;24.20;97.30
12655;DHT22;6392;44.644;11.448;2023-04-10T15:15:48;24.40;97.90
12655;DHT22;6392;44.644;11.448;2023-04-10T15:18:14;24.40;98.60
12655;DHT22;6392;44.644;11.448;2023-04-10T15:20:41;24.50;99.10
12655;DHT22;6392;44.644;11.448;2023-04-10T15:23:08;24.60;99.40
12655;DHT22;6392;44.644;11.448;2023-04-10T15:25:35;24.80;98.50
12655;DHT22;6392;44.644;11.448;2023-04-10T15:28:03;24.80;98.20
12655;DHT22;6392;44.644;11.448;2023-04-10T15:30:32;24.90;97.90
12655;DHT22;6392;44.644;11.448;2023-04-10T15:32:59;25.00;97.50
12655;DHT22;6392;44.644;11.448;2023-04-10T15:35:25;25.20;97.50
12655;DHT22;6392;44.644;11.448;2023-04-10T15:37:55;25.30;97.00
12655;DHT22;6392;44.644;11.448;2023-04-10T15:40:22;25.40;96.10
12655;DHT22;6392;44.644;11.448;2023-04-10T15:42:49;25.60;96.40
12655;DHT22;6392;44.644;11.448;2023-04-10T15:45:17;25.70;95.90